Řízení letového provozu České republiky  
Aktualizace dat:  01.09.2014 23:19:21 UTC English version
   METEO Zobrazení stránky:  01.09.2014 23:19:45 UTC  
vysvětlivky
METAR EDDB 012250Z 26002KT 6000 -RA FEW016 SCT019 BKN023 14/14 Q1018 NOSIG=
METAR EDDC 012250Z 19002KT 7000 BKN025 14/13 Q1018=
METAR EDDE 012250Z 28007KT 9999 MIFG FEW038 SCT080 13/12 Q1020=
METAR EDDF 012250Z 23003KT CAVOK 16/12 Q1021 NOSIG=
METAR EDDM 012250Z 26005KT 9999 SCT025 BKN070 13/11 Q1021 NOSIG=
METAR COR EDDN 012250Z VRB02KT CAVOK 12/12 Q1020=
METAR EDDP 012250Z 28005KT 9999 -RA BKN031 BKN060 14/13 Q1019 NOSIG=
METAR EDDT 012250Z VRB01KT 6000 -RA FEW005 BKN009 15/14 Q1018=
METAR EDQM 012250Z AUTO 28006KT 9999NDV FEW011/// BKN046/// 12/10 Q1020=
METAR EPBY 012300Z 05003KT CAVOK 14/10 Q1019 =
METAR EPGD 012300Z 07004KT 9999 FEW020 13/10 Q1020 =
METAR EPKK 012300Z 06007KT 6000 -RA BKN007 16/15 Q1014 =
METAR EPKT 012300Z 07007KT 3000 -RA BR SCT002 BKN003 15/15 Q1015 =
METAR EPLL 012300Z 05006KT 6000 -RA BKN008 14/13 Q1016 =
METAR EPPO 012300Z 05004KT 9999 -RA BKN043 14/13 Q1018 =
METAR EPRZ 012300Z 04004KT 9999 BKN009 17/16 Q1014 =
METAR EPWA 012300Z 06008KT 030V100 9999 FEW016 13/11 Q1017 NOSIG=
METAR EPWR 012300Z 33005KT 3000 -RA BR BKN003 BKN006 15/14 Q1016 =
METAR LHBP 012300Z 32011KT 9999 FEW035 SCT100 17/17 Q1011 NOSIG=
METAR LHSM NIL
METAR LKCV 012300Z 30009KT 7000 -RA SCT009 OVC044 13/13 Q1017 NOSIG=
METAR LKKB 012300Z 29004KT 5000 -RA SCT019 OVC070 13/12 Q1018=
METAR LKKU NIL
METAR LKKV 012300Z 25004KT 9999 FEW026 BKN036 11/10 Q1019 RMK REG QNH 1013=
METAR LKLN 012300Z AUTO 26001KT 9999 OVC048 13/12 Q1020=
METAR LKMT 012300Z 32003KT 270V350 9999 RA BKN004 OVC011 15/15 Q1014 NOSIG RMK REG QNH 1013=
METAR LKNA 012300Z 32012KT 5000 -RA SCT004 SCT008 OVC023 12/12 Q1016=
METAR LKPD 012300Z 28007KT 5000 -RA BKN005 OVC035 13/13 Q1017=
METAR LKPR 012300Z 28004KT 7000 -RA FEW020 OVC033 12/12 Q1018 NOSIG RMK REG QNH 1013=
METAR LKTB 012300Z 31010KT 7000 -RA SCT011 OVC026 14/13 Q1014 NOSIG RMK REG QNH 1013=
METAR LKVO NIL
METAR LOWI 012250Z AUTO VRB01KT 9999 -SHRA FEW005 BKN060 11/10 Q1021=
METAR LOWL 012250Z AUTO 25007KT 9999 FEW011 SCT032 BKN050 13/12 Q1019=
METAR LOWS 012250Z AUTO 22005KT 9999 -SHRA FEW026 SCT028 BKN036 12/11 Q1021=
METAR LOWW 012250Z 30015KT 6000 RA FEW009 SCT016 BKN029 14/13 Q1015 TEMPO -RA=
METAR LZIB 012300Z 29012KT 9999 -RA FEW012 BKN029 OVC032 15/13 Q1014=
METAR LZKZ 012300Z 01008KT CAVOK 19/16 Q1011=
METAR LZPP 012300Z AUTO 32003KT 3900 BR OVC038/// 16/15 Q1013=
METAR LZSL 012300Z 28004KT 220V310 2700 -DZ BR FEW016 OVC063 16/15 Q1012=
METAR LZTT 012300Z 00000KT 9999 BKN026 14/13 Q1014=
METAR LZZI 012300Z VRB01KT 3200 -RA BR FEW002 OVC022 15/15 Q1013=